Caddo Gap, Arkansas
Current Conditions -  °F | °C
As of 5:53 AM on Friday 31 Oct 2014 (Local Time) from KMWT Reporting Station
Clear Clear  
Wind Chill: 47°   Ceiling: Unl
Heat Index: 47°   Visibility: 10mi
Dew Point: 43°   Wind: 3mph
Humidity: 86%   Direction: 270°W
Pressure: 30.11"   Gusts: NA
Location:  34.4°N, 93.62°W
Report Text: KMWT 311053Z AUTO 27003KT 10SM CLR 08/06 A3011 RMK AO2 SLP195 T00830061
Loading
Personal Weather Stations






























Interactive Weather Map
Tropical Storm Tracking
New forecast layout! Learn more

10-Day Weather Forecast

Advertisements
Track Severe Weather on mobile